Time;durP1;ratioP1;P1;durP2;ratioP2;P2;SDS_P1;SDS_P2;PMS_P1;PMS_P2;Temp;Humidity;BMP_temperature;BMP_pressure;BME280_temperature;BME280_humidity;BME280_pressure;Samples;Min_cycle;Max_cycle;Signal;HPM_P1;HPM_P2
2021/01/19 00:01:59;;;;;;;12.82;3.80;;;6.10;99.90;;;;;;5063261;28;20064;-64
2021/01/19 00:04:24;;;;;;;13.07;3.80;;;6.10;99.90;;;;;;5061940;28;20044;-63
2021/01/19 00:06:50;;;;;;;10.57;3.22;;;6.10;99.90;;;;;;5064692;28;20036;-64
2021/01/19 00:09:15;;;;;;;11.30;3.50;;;6.10;99.90;;;;;;5062765;28;20064;-64
2021/01/19 00:11:41;;;;;;;9.20;2.97;;;6.10;99.90;;;;;;5060685;28;20524;-63
2021/01/19 00:14:06;;;;;;;10.57;2.70;;;6.10;99.90;;;;;;5064424;28;20064;-64
2021/01/19 00:16:32;;;;;;;8.88;2.65;;;6.10;99.90;;;;;;5061592;28;20079;-64
2021/01/19 00:18:57;;;;;;;9.20;3.22;;;6.10;99.90;;;;;;5061165;28;20055;-63
2021/01/19 00:21:23;;;;;;;10.73;2.67;;;6.10;99.90;;;;;;5089555;22;20131;-58
2021/01/19 00:23:49;;;;;;;8.68;2.72;;;6.20;99.90;;;;;;5059085;28;20025;-58
2021/01/19 00:26:14;;;;;;;13.73;3.53;;;6.10;99.90;;;;;;5063216;28;20028;-60
2021/01/19 00:28:40;;;;;;;17.92;3.42;;;6.10;99.90;;;;;;5064013;28;20451;-59
2021/01/19 00:31:07;;;;;;;10.65;2.05;;;6.10;99.90;;;;;;5061507;28;20048;-59
2021/01/19 00:33:32;;;;;;;11.38;2.47;;;6.10;99.90;;;;;;5062137;28;20373;-59
2021/01/19 00:35:58;;;;;;;11.57;1.88;;;6.10;99.90;;;;;;5060419;28;20082;-60
2021/01/19 00:38:23;;;;;;;10.77;2.53;;;6.00;99.90;;;;;;5063879;28;20575;-59
2021/01/19 00:40:49;;;;;;;11.18;2.10;;;6.00;99.90;;;;;;5058211;28;20029;-59
2021/01/19 00:43:15;;;;;;;8.68;2.13;;;6.00;99.90;;;;;;5063904;28;20032;-60
2021/01/19 00:45:40;;;;;;;13.10;2.47;;;6.00;99.90;;;;;;5062588;28;20028;-59
2021/01/19 00:48:07;;;;;;;15.48;3.60;;;6.00;99.90;;;;;;5060426;28;20025;-58
2021/01/19 00:50:32;;;;;;;13.18;2.10;;;5.90;99.90;;;;;;5065710;28;20028;-59
2021/01/19 00:52:58;;;;;;;6.65;1.80;;;6.00;99.90;;;;;;5059792;28;20032;-60
2021/01/19 00:55:23;;;;;;;5.03;1.42;;;5.90;99.90;;;;;;5061479;28;20128;-62
2021/01/19 00:57:49;;;;;;;4.75;1.40;;;5.90;99.90;;;;;;5058136;28;20028;-59
2021/01/19 01:00:16;;;;;;;8.35;1.67;;;5.90;99.90;;;;;;5059048;28;20029;-58
2021/01/19 01:02:41;;;;;;;9.73;2.17;;;5.90;99.90;;;;;;5059192;28;20082;-60
2021/01/19 01:05:08;;;;;;;7.50;1.48;;;5.80;99.90;;;;;;5055096;28;20155;-58
2021/01/19 01:07:34;;;;;;;14.32;2.30;;;5.80;99.90;;;;;;5058095;28;20032;-59
2021/01/19 01:10:02;;;;;;;16.48;2.28;;;5.80;99.90;;;;;;5056217;28;20324;-59
2021/01/19 01:12:27;;;;;;;8.80;1.73;;;5.90;99.90;;;;;;5057038;28;20033;-58
2021/01/19 01:14:53;;;;;;;9.82;1.77;;;5.80;99.90;;;;;;5059436;28;20440;-59
2021/01/19 01:17:18;;;;;;;11.15;1.35;;;5.90;99.90;;;;;;5058997;28;20417;-64
2021/01/19 01:19:44;;;;;;;7.90;1.60;;;5.90;99.90;;;;;;5061201;28;20086;-58
2021/01/19 01:22:09;;;;;;;6.90;2.28;;;5.90;99.90;;;;;;5059319;28;20474;-58
2021/01/19 01:24:35;;;;;;;10.55;1.40;;;5.90;99.90;;;;;;5062076;28;20059;-62
2021/01/19 01:27:00;;;;;;;10.60;1.55;;;6.00;99.90;;;;;;5059277;28;20029;-59
2021/01/19 01:29:26;;;;;;;7.78;1.67;;;5.90;99.90;;;;;;5059260;28;20123;-58
2021/01/19 01:31:52;;;;;;;7.90;2.20;;;5.90;99.90;;;;;;5059707;28;20036;-60
2021/01/19 01:34:17;;;;;;;6.22;1.67;;;5.90;99.90;;;;;;5062443;28;20028;-59
2021/01/19 01:36:43;;;;;;;12.43;2.30;;;5.80;99.90;;;;;;5059160;28;20029;-60
2021/01/19 01:39:08;;;;;;;6.22;1.50;;;5.80;99.90;;;;;;5062150;28;20028;-60
2021/01/19 01:41:34;;;;;;;9.93;2.70;;;5.80;99.90;;;;;;5061991;28;20049;-60
2021/01/19 01:44:02;;;;;;;8.63;1.27;;;5.80;99.90;;;;;;5060335;28;20044;-58
2021/01/19 01:46:34;;;;;;;12.57;1.88;;;5.80;99.90;;;;;;5060223;28;20041;-59
2021/01/19 01:49:00;;;;;;;11.40;1.70;;;5.70;99.90;;;;;;5060037;28;20033;-59
2021/01/19 01:51:27;;;;;;;10.82;1.50;;;5.70;99.90;;;;;;5058654;28;20045;-59
2021/01/19 01:53:55;;;;;;;4.43;1.70;;;5.70;99.90;;;;;;5060744;28;20040;-60
2021/01/19 01:56:20;;;;;;;7.55;1.67;;;5.60;99.90;;;;;;5059200;28;20041;-61
2021/01/19 01:58:46;;;;;;;19.75;1.55;;;5.60;99.90;;;;;;5062051;28;20135;-60
2021/01/19 02:01:12;;;;;;;11.90;1.70;;;5.60;99.90;;;;;;5058520;28;20029;-60
2021/01/19 02:03:38;;;;;;;12.77;2.05;;;5.60;99.90;;;;;;5061546;28;20516;-58
2021/01/19 02:06:04;;;;;;;7.22;1.42;;;5.60;99.90;;;;;;5059046;28;20048;-58
2021/01/19 02:08:42;;;;;;;8.90;1.88;;;5.60;99.90;;;;;;5060533;28;20029;-60
2021/01/19 02:11:31;;;;;;;13.95;2.58;;;5.60;99.90;;;;;;5058595;28;20068;-59
2021/01/19 02:14:20;;;;;;;10.70;1.98;;;5.60;99.90;;;;;;5058660;28;20043;-59
2021/01/19 02:17:18;;;;;;;10.02;2.55;;;5.50;99.90;;;;;;5058233;28;20036;-61
2021/01/19 02:20:28;;;;;;;6.97;1.83;;;5.50;99.90;;;;;;5052234;28;20094;-60
2021/01/19 02:23:12;;;;;;;10.20;1.92;;;5.50;99.90;;;;;;5057885;28;20234;-62
2021/01/19 02:26:19;;;;;;;9.65;1.55;;;5.50;99.90;;;;;;5058007;28;20053;-58
2021/01/19 02:28:54;;;;;;;9.57;2.45;;;5.50;99.90;;;;;;5057839;28;20025;-58
2021/01/19 02:31:57;;;;;;;9.48;2.75;;;5.50;99.90;;;;;;5060396;28;20037;-59
2021/01/19 02:34:33;;;;;;;14.07;2.05;;;5.40;99.90;;;;;;5061570;28;20044;-61
2021/01/19 02:37:05;;;;;;;9.90;1.92;;;5.30;99.90;;;;;;5060139;28;20501;-60
2021/01/19 02:39:46;;;;;;;13.48;2.42;;;5.30;99.90;;;;;;5058694;28;20041;-59
2021/01/19 02:42:14;;;;;;;10.13;2.17;;;5.30;99.90;;;;;;5056105;28;20108;-58
2021/01/19 02:44:41;;;;;;;20.17;3.63;;;5.20;99.90;;;;;;5056111;28;20032;-58
2021/01/19 02:47:07;;;;;;;5.70;1.60;;;5.20;99.90;;;;;;5057116;28;20036;-60
2021/01/19 02:49:33;;;;;;;15.15;1.70;;;5.10;99.90;;;;;;5057995;28;20040;-63
2021/01/19 02:52:00;;;;;;;20.52;2.63;;;5.10;99.90;;;;;;5060006;28;20383;-61
2021/01/19 02:54:27;;;;;;;9.20;2.65;;;5.00;99.90;;;;;;5056978;28;20119;-59
2021/01/19 02:56:53;;;;;;;9.55;2.78;;;5.10;99.90;;;;;;5059409;28;20036;-58
2021/01/19 02:59:36;;;;;;;13.68;2.40;;;5.00;99.90;;;;;;5057900;28;20041;-60
2021/01/19 03:02:11;;;;;;;7.68;1.65;;;5.00;99.90;;;;;;5060591;28;20035;-61
2021/01/19 03:04:38;;;;;;;12.32;2.30;;;5.00;99.90;;;;;;5055718;28;20040;-60
2021/01/19 03:07:07;;;;;;;11.60;2.38;;;5.00;99.90;;;;;;5060744;28;20036;-59
2021/01/19 03:09:39;;;;;;;12.80;2.30;;;4.90;99.90;;;;;;5056905;28;20029;-58
2021/01/19 03:12:06;;;;;;;9.73;2.50;;;4.90;99.90;;;;;;5061094;28;20039;-59
2021/01/19 03:14:35;;;;;;;11.32;2.80;;;5.00;99.90;;;;;;5055892;28;20029;-61
2021/01/19 03:17:09;;;;;;;12.55;2.75;;;4.90;99.90;;;;;;5060498;28;20132;-61
2021/01/19 03:19:38;;;;;;;10.57;2.65;;;4.90;99.90;;;;;;5056930;28;20086;-60
2021/01/19 03:22:03;;;;;;;15.40;3.03;;;4.90;99.90;;;;;;5060534;28;20036;-60
2021/01/19 03:24:29;;;;;;;15.55;4.20;;;4.90;99.90;;;;;;5057624;28;20117;-58
2021/01/19 03:26:55;;;;;;;10.60;3.60;;;4.90;99.90;;;;;;5059072;28;20082;-63
2021/01/19 03:29:20;;;;;;;11.60;3.45;;;4.90;99.90;;;;;;5057007;28;20394;-59
2021/01/19 03:31:46;;;;;;;14.43;3.67;;;4.90;99.90;;;;;;5057888;28;20029;-58
2021/01/19 03:34:11;;;;;;;19.45;4.20;;;4.80;99.90;;;;;;5059980;28;20488;-59
2021/01/19 03:36:37;;;;;;;13.30;3.85;;;4.90;99.90;;;;;;5056392;28;20017;-59
2021/01/19 03:39:03;;;;;;;9.05;3.55;;;4.90;99.90;;;;;;5059787;28;20556;-60
2021/01/19 03:41:29;;;;;;;10.25;3.13;;;4.90;99.90;;;;;;5057251;28;20099;-58
2021/01/19 03:43:54;;;;;;;9.50;3.40;;;4.90;99.90;;;;;;5058736;28;20037;-59
2021/01/19 03:46:20;;;;;;;14.55;4.55;;;4.90;99.90;;;;;;5058509;28;20033;-61
2021/01/19 03:48:45;;;;;;;9.35;3.63;;;5.00;99.90;;;;;;5057763;28;20037;-58
2021/01/19 03:51:11;;;;;;;8.77;3.65;;;5.00;99.90;;;;;;5058593;28;20036;-59
2021/01/19 03:53:37;;;;;;;11.68;4.38;;;5.00;99.90;;;;;;5056425;28;20021;-58
2021/01/19 03:56:03;;;;;;;8.82;3.50;;;4.90;99.90;;;;;;5056449;28;20099;-59
2021/01/19 03:58:29;;;;;;;10.32;4.10;;;5.00;99.90;;;;;;5059271;28;20044;-59
2021/01/19 04:00:54;;;;;;;10.60;3.47;;;5.00;99.90;;;;;;5055907;28;20033;-59
2021/01/19 04:03:20;;;;;;;10.70;4.03;;;5.00;99.90;;;;;;5056944;28;20040;-58
2021/01/19 04:05:45;;;;;;;15.82;4.95;;;5.00;99.90;;;;;;5058634;28;20027;-60
2021/01/19 04:08:11;;;;;;;12.02;4.18;;;5.00;99.90;;;;;;5056756;28;20120;-59
2021/01/19 04:10:36;;;;;;;13.13;5.30;;;5.00;99.90;;;;;;5059526;28;20039;-58
2021/01/19 04:13:02;;;;;;;18.23;4.93;;;5.00;99.90;;;;;;5056246;28;20069;-59
2021/01/19 04:15:27;;;;;;;14.25;4.60;;;5.00;99.90;;;;;;5058486;28;20067;-59
2021/01/19 04:17:53;;;;;;;15.23;4.97;;;5.10;99.90;;;;;;5057492;28;20060;-61
2021/01/19 04:20:18;;;;;;;12.40;5.25;;;5.10;99.90;;;;;;5057756;28;20041;-59
2021/01/19 04:22:44;;;;;;;11.10;4.88;;;5.10;99.90;;;;;;5058525;28;20452;-60
2021/01/19 04:25:10;;;;;;;13.35;4.75;;;5.10;99.90;;;;;;5055229;28;20072;-59
2021/01/19 04:27:35;;;;;;;11.00;4.75;;;5.10;99.90;;;;;;5058187;28;20045;-61
2021/01/19 04:30:07;;;;;;;9.48;5.15;;;5.10;99.90;;;;;;5056164;28;20041;-60
2021/01/19 04:32:33;;;;;;;11.85;5.18;;;5.10;99.90;;;;;;5055825;28;20039;-59
2021/01/19 04:34:58;;;;;;;10.98;4.90;;;5.20;99.90;;;;;;5059573;28;20041;-60
2021/01/19 04:37:24;;;;;;;8.77;5.28;;;5.10;99.90;;;;;;5057084;28;20404;-62
2021/01/19 04:39:49;;;;;;;16.08;5.78;;;5.20;99.90;;;;;;5057895;28;20071;-59
2021/01/19 04:42:18;;;;;;;12.32;5.30;;;5.20;99.90;;;;;;5058168;28;20127;-58
2021/01/19 04:44:44;;;;;;;10.40;5.20;;;5.20;99.90;;;;;;5056028;28;20040;-58
2021/01/19 04:47:12;;;;;;;7.40;4.90;;;5.20;99.90;;;;;;5059023;28;20017;-58
2021/01/19 04:49:38;;;;;;;15.02;5.70;;;5.20;99.90;;;;;;5057161;28;20029;-59
2021/01/19 04:52:05;;;;;;;10.90;5.78;;;5.20;99.90;;;;;;5063930;28;20036;-58
2021/01/19 04:54:41;;;;;;;13.73;5.78;;;5.20;99.90;;;;;;5055574;28;20033;-59
2021/01/19 04:57:19;;;;;;;10.07;4.97;;;5.20;99.90;;;;;;5058555;28;20036;-59
2021/01/19 04:59:51;;;;;;;10.48;5.70;;;5.20;99.90;;;;;;5061039;28;20396;-59
2021/01/19 05:02:59;;;;;;;11.18;5.57;;;5.20;99.90;;;;;;5061737;28;20033;-61
2021/01/19 05:05:57;;;;;;;7.43;4.47;;;5.30;99.90;;;;;;5050844;28;20044;-60
2021/01/19 05:08:44;;;;;;;10.38;5.13;;;5.30;99.90;;;;;;5031809;28;20033;-59
2021/01/19 05:11:22;;;;;;;9.95;4.72;;;5.30;99.90;;;;;;5059605;28;20530;-60
2021/01/19 05:14:01;;;;;;;11.75;5.50;;;5.30;99.90;;;;;;5061281;28;20024;-58
2021/01/19 05:16:33;;;;;;;9.25;4.95;;;5.30;99.90;;;;;;5062095;28;20032;-58
2021/01/19 05:19:00;;;;;;;8.27;4.32;;;5.30;99.90;;;;;;5055563;28;20098;-62
2021/01/19 05:21:25;;;;;;;10.18;4.68;;;5.30;99.90;;;;;;5060394;28;20037;-58
2021/01/19 05:23:51;;;;;;;8.60;4.82;;;5.30;99.90;;;;;;5060502;28;20027;-59
2021/01/19 05:26:18;;;;;;;10.45;5.30;;;5.30;99.90;;;;;;5060953;28;20036;-60
2021/01/19 05:28:50;;;;;;;7.88;4.82;;;5.40;99.90;;;;;;5061142;28;20029;-58
2021/01/19 05:31:15;;;;;;;9.00;4.82;;;5.40;99.90;;;;;;5063914;28;20035;-59
2021/01/19 05:33:53;;;;;;;14.15;5.18;;;5.40;99.90;;;;;;5068411;28;20119;-60
2021/01/19 05:36:26;;;;;;;7.95;4.97;;;5.40;99.90;;;;;;5067687;28;20047;-61
2021/01/19 05:38:57;;;;;;;9.45;4.88;;;5.50;99.90;;;;;;5072424;28;20765;-60
2021/01/19 05:41:41;;;;;;;13.02;6.10;;;5.40;99.90;;;;;;5072923;28;20043;-59
2021/01/19 05:44:10;;;;;;;10.20;5.25;;;5.50;99.90;;;;;;5070514;28;20024;-59
2021/01/19 05:47:03;;;;;;;8.05;4.93;;;5.50;99.90;;;;;;5070369;28;20094;-58
2021/01/19 05:49:43;;;;;;;9.40;5.05;;;5.50;99.90;;;;;;5068208;28;20068;-59
2021/01/19 05:52:13;;;;;;;13.40;5.20;;;5.50;99.90;;;;;;5057969;28;20127;-60
2021/01/19 05:54:46;;;;;;;9.88;4.68;;;5.50;99.90;;;;;;5051096;28;20056;-58
2021/01/19 05:57:14;;;;;;;14.80;5.75;;;5.60;99.90;;;;;;5063928;28;20171;-59
2021/01/19 05:59:45;;;;;;;9.50;4.95;;;5.60;99.90;;;;;;5059258;28;20032;-59
2021/01/19 06:02:13;;;;;;;9.68;4.65;;;5.60;99.90;;;;;;5059838;28;20660;-58
2021/01/19 06:04:49;;;;;;;14.70;5.20;;;5.60;99.90;;;;;;5056980;28;20033;-60
2021/01/19 06:07:18;;;;;;;10.82;5.05;;;5.60;99.90;;;;;;5060581;28;20032;-59
2021/01/19 06:09:44;;;;;;;7.65;4.47;;;5.60;99.90;;;;;;5061209;28;20043;-58
2021/01/19 06:12:11;;;;;;;8.63;4.18;;;5.60;99.90;;;;;;5059883;28;20025;-58
2021/01/19 06:14:37;;;;;;;9.20;4.20;;;5.70;99.90;;;;;;5057625;28;20406;-60
2021/01/19 06:17:08;;;;;;;9.98;4.05;;;5.70;99.90;;;;;;5058198;28;20311;-60
2021/01/19 06:19:33;;;;;;;;;;;5.70;99.90;;;;;;5056203;28;20124;-60
2021/01/19 06:22:05;;;;;;;7.38;3.90;;;5.70;99.90;;;;;;5076587;22;20015;-64
2021/01/19 06:24:35;;;;;;;10.15;4.70;;;5.70;99.90;;;;;;5058562;28;20031;-64
2021/01/19 06:27:01;;;;;;;8.75;3.83;;;5.70;99.90;;;;;;5057305;28;20033;-64
2021/01/19 06:29:28;;;;;;;11.88;4.03;;;5.80;99.90;;;;;;5061374;28;20119;-63
2021/01/19 06:31:56;;;;;;;7.88;3.58;;;5.80;99.90;;;;;;5060725;28;20182;-64
2021/01/19 06:34:25;;;;;;;5.65;3.53;;;5.80;99.90;;;;;;5058289;28;20037;-63
2021/01/19 06:36:50;;;;;;;7.07;3.10;;;5.80;99.90;;;;;;5057693;28;20057;-64
2021/01/19 06:39:38;;;;;;;9.85;3.85;;;5.90;99.90;;;;;;5060337;28;20063;-63
2021/01/19 06:42:15;;;;;;;11.50;3.38;;;5.90;99.90;;;;;;5060260;28;20389;-64
2021/01/19 06:44:44;;;;;;;6.50;3.20;;;6.00;99.90;;;;;;5057399;28;20477;-63
2021/01/19 06:47:10;;;;;;;6.35;3.60;;;6.00;99.90;;;;;;5059463;28;20311;-64
2021/01/19 06:49:38;;;;;;;9.82;3.78;;;6.00;99.90;;;;;;5059363;28;20040;-64
2021/01/19 06:52:29;;;;;;;7.80;2.83;;;6.10;99.90;;;;;;5059667;28;20025;-63
2021/01/19 06:54:54;;;;;;;7.38;2.90;;;6.10;99.90;;;;;;5055893;28;20052;-64
2021/01/19 06:57:42;;;;;;;4.05;2.42;;;6.10;99.90;;;;;;5054956;28;20397;-63
2021/01/19 07:00:18;;;;;;;5.40;2.70;;;6.10;99.90;;;;;;5061048;28;20124;-63
2021/01/19 07:02:44;;;;;;;6.70;2.45;;;6.20;99.90;;;;;;5056976;28;20032;-63
2021/01/19 07:05:11;;;;;;;6.32;2.30;;;6.20;99.90;;;;;;5058355;28;20059;-63
2021/01/19 07:07:48;;;;;;;5.15;2.28;;;6.20;99.90;;;;;;5056716;28;20033;-63
2021/01/19 07:10:58;;;;;;;4.20;1.98;;;6.20;99.90;;;;;;5057611;28;20123;-63
2021/01/19 07:13:26;;;;;;;4.10;2.13;;;6.20;99.90;;;;;;5035916;28;20524;-70
2021/01/19 07:16:05;;;;;;;4.43;1.52;;;6.30;99.90;;;;;;5064347;28;20388;-63
2021/01/19 07:18:58;;;;;;;4.22;1.25;;;6.30;99.90;;;;;;5055259;28;20060;-63
2021/01/19 07:21:40;;;;;;;4.40;1.80;;;6.40;99.90;;;;;;5055934;28;20627;-63
2021/01/19 07:24:26;;;;;;;5.82;1.77;;;6.40;99.90;;;;;;5062065;28;20032;-61
2021/01/19 07:26:57;;;;;;;3.80;1.45;;;6.40;99.90;;;;;;5060114;28;20109;-63
2021/01/19 07:29:23;;;;;;;5.88;1.80;;;6.50;99.90;;;;;;5052227;28;20032;-63
2021/01/19 07:31:49;;;;;;;5.88;1.30;;;6.50;99.90;;;;;;5061796;28;20039;-63
2021/01/19 07:34:17;;;;;;;4.53;1.40;;;6.50;99.90;;;;;;5055713;28;20494;-63
2021/01/19 07:36:52;;;;;;;6.72;2.38;;;6.60;99.90;;;;;;5062808;28;20082;-63
2021/01/19 07:39:20;;;;;;;4.57;1.13;;;6.60;99.90;;;;;;5060552;28;20037;-64
2021/01/19 07:41:46;;;;;;;3.13;1.85;;;6.60;99.90;;;;;;5063052;28;20024;-63
2021/01/19 07:44:24;;;;;;;4.88;1.35;;;6.60;99.90;;;;;;5062391;28;20048;-63
2021/01/19 07:46:50;;;;;;;5.65;1.45;;;6.60;99.90;;;;;;5063169;28;20122;-63
2021/01/19 07:49:16;;;;;;;1.85;0.90;;;6.70;99.90;;;;;;5060574;28;20037;-62
2021/01/19 07:51:47;;;;;;;5.95;1.30;;;6.70;99.90;;;;;;5061648;28;20044;-63
2021/01/19 07:54:19;;;;;;;3.75;1.63;;;6.70;99.90;;;;;;5060392;28;20041;-63
2021/01/19 07:56:45;;;;;;;9.27;1.83;;;6.70;99.90;;;;;;5059208;28;20044;-63
2021/01/19 07:59:16;;;;;;;6.88;3.10;;;6.70;99.90;;;;;;5059938;28;20032;-62
2021/01/19 08:01:52;;;;;;;3.33;1.20;;;6.80;99.90;;;;;;5061676;28;20043;-63
2021/01/19 08:04:28;;;;;;;5.00;1.50;;;6.80;99.90;;;;;;5061923;28;20032;-64
2021/01/19 08:06:54;;;;;;;6.60;1.42;;;6.80;99.90;;;;;;5061530;28;20056;-63
2021/01/19 08:09:19;;;;;;;7.13;1.95;;;6.80;99.90;;;;;;5058330;28;20044;-62
2021/01/19 08:11:45;;;;;;;9.73;1.70;;;6.80;99.90;;;;;;5062010;28;20041;-63
2021/01/19 08:14:11;;;;;;;4.80;1.60;;;6.80;99.90;;;;;;5063260;28;20036;-63
2021/01/19 08:16:41;;;;;;;6.80;1.95;;;6.80;99.90;;;;;;5061149;28;20086;-63
2021/01/19 08:19:08;;;;;;;4.50;2.03;;;6.80;99.90;;;;;;5060753;28;20120;-62
2021/01/19 08:21:49;;;;;;;2.67;1.33;;;6.90;99.90;;;;;;5064909;28;20041;-63
2021/01/19 08:24:15;;;;;;;;;;;6.90;99.90;;;;;;5063178;28;20436;-63
2021/01/19 08:26:44;;;;;;;6.88;1.83;;;6.90;99.90;;;;;;5066740;28;19999;-63
2021/01/19 08:29:10;;;;;;;12.13;2.53;;;7.00;99.90;;;;;;5061804;28;20029;-63
2021/01/19 08:31:36;;;;;;;5.00;1.85;;;7.00;99.90;;;;;;5065236;28;20047;-63
2021/01/19 08:34:08;;;;;;;5.50;1.55;;;7.00;99.90;;;;;;5066636;28;20032;-63
2021/01/19 08:36:35;;;;;;;2.85;1.30;;;7.00;99.90;;;;;;5066056;28;20037;-62
2021/01/19 08:39:03;;;;;;;5.28;1.63;;;7.00;99.90;;;;;;5063574;28;20477;-63
2021/01/19 08:41:29;;;;;;;3.55;1.65;;;7.00;99.90;;;;;;5064459;28;20112;-63
2021/01/19 08:43:56;;;;;;;1.90;1.35;;;7.10;99.90;;;;;;5066090;28;20111;-64
2021/01/19 08:46:22;;;;;;;3.78;1.40;;;7.10;99.90;;;;;;5065455;28;20048;-63
2021/01/19 08:48:52;;;;;;;2.58;1.27;;;7.10;99.90;;;;;;5065689;28;20036;-62
2021/01/19 08:51:25;;;;;;;7.15;1.70;;;7.20;99.90;;;;;;5058074;28;20037;-63
2021/01/19 08:53:51;;;;;;;4.05;1.40;;;7.20;99.90;;;;;;5062726;28;20135;-63
2021/01/19 08:56:19;;;;;;;2.70;1.52;;;7.20;99.90;;;;;;5066169;28;20024;-62
2021/01/19 08:58:44;;;;;;;4.10;1.52;;;7.20;99.90;;;;;;5065476;28;20029;-63
2021/01/19 09:01:10;;;;;;;11.88;1.67;;;7.20;99.90;;;;;;5062757;28;20440;-63
2021/01/19 09:03:35;;;;;;;3.67;1.40;;;7.20;99.90;;;;;;5064843;28;20028;-63
2021/01/19 09:06:02;;;;;;;5.90;1.77;;;7.30;99.90;;;;;;5064932;28;20435;-63
2021/01/19 09:08:28;;;;;;;2.20;1.10;;;7.30;99.90;;;;;;5064644;28;20041;-63
2021/01/19 09:11:04;;;;;;;3.90;1.50;;;7.30;99.90;;;;;;5065201;28;20031;-63
2021/01/19 09:13:32;;;;;;;2.70;0.90;;;7.30;99.90;;;;;;5063527;28;20025;-63
2021/01/19 09:15:58;;;;;;;7.40;2.00;;;7.30;99.90;;;;;;5065705;28;20036;-63
2021/01/19 09:18:24;;;;;;;4.28;1.20;;;7.30;99.90;;;;;;5064117;28;20056;-61
2021/01/19 09:21:04;;;;;;;2.25;1.05;;;7.30;99.90;;;;;;5064689;28;20067;-63
2021/01/19 09:23:31;;;;;;;1.73;0.77;;;7.40;99.90;;;;;;5061611;28;20112;-63
2021/01/19 09:26:06;;;;;;;2.10;1.08;;;7.40;99.90;;;;;;5065848;28;20283;-63
2021/01/19 09:28:36;;;;;;;2.92;1.20;;;7.50;99.90;;;;;;5062320;28;20028;-63
2021/01/19 09:31:18;;;;;;;2.78;1.50;;;7.50;99.90;;;;;;5063183;28;20041;-63
2021/01/19 09:33:48;;;;;;;5.32;1.90;;;7.50;99.90;;;;;;5065118;28;20086;-63
2021/01/19 09:36:14;;;;;;;;;;;7.60;99.90;;;;;;5057934;28;20397;-63
2021/01/19 09:38:41;;;;;;;2.35;1.25;;;7.60;99.90;;;;;;5063344;28;19921;-63
2021/01/19 09:41:08;;;;;;;2.50;1.42;;;7.60;99.90;;;;;;5062986;28;20036;-62
2021/01/19 09:43:35;;;;;;;5.65;1.40;;;7.60;99.90;;;;;;5060132;28;20037;-61
2021/01/19 09:46:06;;;;;;;5.50;1.50;;;7.70;99.90;;;;;;5064937;28;20040;-63
2021/01/19 09:48:35;;;;;;;6.35;1.70;;;7.70;99.90;;;;;;5062658;28;20036;-63
2021/01/19 09:51:07;;;;;;;2.83;1.45;;;7.70;99.90;;;;;;5062699;28;20094;-63
2021/01/19 09:53:34;;;;;;;2.53;1.70;;;7.80;99.90;;;;;;5062846;28;20531;-63
2021/01/19 09:56:16;;;;;;;2.33;1.20;;;7.80;99.90;;;;;;5064609;28;20036;-63
2021/01/19 09:58:42;;;;;;;2.65;1.50;;;7.80;99.90;;;;;;5061332;28;20036;-63
2021/01/19 10:01:08;;;;;;;6.80;1.60;;;7.90;99.90;;;;;;5064359;28;20039;-62
2021/01/19 10:03:35;;;;;;;4.68;1.55;;;7.90;99.90;;;;;;5059691;28;20047;-62
2021/01/19 10:06:08;;;;;;;5.90;1.65;;;7.90;99.90;;;;;;5064104;28;20037;-62
2021/01/19 10:08:37;;;;;;;2.75;1.50;;;8.00;99.90;;;;;;5062442;28;20068;-63
2021/01/19 10:11:03;;;;;;;6.80;1.95;;;8.00;99.90;;;;;;5057631;28;20033;-62
2021/01/19 10:13:31;;;;;;;8.95;1.88;;;8.00;99.90;;;;;;5060329;28;20163;-62
2021/01/19 10:16:02;;;;;;;8.40;2.03;;;8.10;99.90;;;;;;5063412;28;20052;-63
2021/01/19 10:18:29;;;;;;;15.57;2.65;;;8.10;99.90;;;;;;5061162;28;20044;-65
2021/01/19 10:20:55;;;;;;;6.55;1.67;;;8.20;99.90;;;;;;5065946;28;20105;-62
2021/01/19 10:23:31;;;;;;;6.90;1.83;;;8.30;99.90;;;;;;5059531;28;20508;-63
2021/01/19 10:26:11;;;;;;;6.35;1.73;;;8.50;99.90;;;;;;5061029;28;20507;-63
2021/01/19 10:28:42;;;;;;;9.88;1.63;;;8.60;99.90;;;;;;5061677;28;20063;-63
2021/01/19 10:31:22;;;;;;;7.15;1.42;;;8.80;99.90;;;;;;5060256;28;20480;-62
2021/01/19 10:34:03;;;;;;;9.97;2.13;;;8.90;99.90;;;;;;5060063;28;20060;-62
2021/01/19 10:36:33;;;;;;;11.85;2.45;;;9.00;99.90;;;;;;5061366;28;20041;-63
2021/01/19 10:39:07;;;;;;;13.18;1.85;;;9.10;99.90;;;;;;5059477;28;20040;-63
2021/01/19 10:41:33;;;;;;;13.48;2.30;;;9.10;99.90;;;;;;5060201;28;20040;-63
2021/01/19 10:43:59;;;;;;;10.15;1.90;;;9.20;99.90;;;;;;5062760;28;20167;-63
2021/01/19 10:46:27;;;;;;;8.90;1.42;;;9.30;99.90;;;;;;5061107;28;20119;-63
2021/01/19 10:49:19;;;;;;;9.90;1.60;;;9.30;99.90;;;;;;5059000;28;20122;-63
2021/01/19 10:51:49;;;;;;;7.78;0.90;;;9.30;99.90;;;;;;5076471;28;20060;-63
2021/01/19 10:54:16;;;;;;;5.28;1.05;;;9.30;99.90;;;;;;5062142;28;20497;-63
2021/01/19 10:56:45;;;;;;;15.82;1.50;;;9.40;99.90;;;;;;5060168;28;20217;-63
2021/01/19 10:59:11;;;;;;;9.90;1.58;;;9.40;99.90;;;;;;5062740;28;20029;-63
2021/01/19 11:01:37;;;;;;;9.77;1.85;;;9.40;99.90;;;;;;5066701;28;20344;-62
2021/01/19 11:04:05;;;;;;;10.18;1.23;;;9.40;99.90;;;;;;5063975;28;20243;-62
2021/01/19 11:06:39;;;;;;;6.78;1.40;;;9.40;99.90;;;;;;5060085;28;20037;-63
2021/01/19 11:09:06;;;;;;;8.18;1.20;;;9.40;99.90;;;;;;5057170;28;20442;-62
2021/01/19 11:11:34;;;;;;;9.98;1.33;;;9.50;99.90;;;;;;5061303;28;20048;-62
2021/01/19 11:14:03;;;;;;;11.55;1.95;;;9.40;99.90;;;;;;5058234;28;20067;-63
2021/01/19 11:16:40;;;;;;;10.10;1.33;;;9.50;99.90;;;;;;5061243;28;20037;-64
2021/01/19 11:19:07;;;;;;;6.53;1.55;;;9.50;99.90;;;;;;5060595;28;20089;-63
2021/01/19 11:21:37;;;;;;;10.07;1.65;;;9.50;99.90;;;;;;5061959;28;20060;-63
2021/01/19 11:24:05;;;;;;;8.63;0.98;;;9.60;99.90;;;;;;5062881;28;20405;-63
2021/01/19 11:26:31;;;;;;;5.40;0.98;;;9.60;99.90;;;;;;5063423;28;20029;-62
2021/01/19 11:28:57;;;;;;;9.30;1.58;;;9.60;99.90;;;;;;5057180;28;20086;-63
2021/01/19 11:31:27;;;;;;;9.68;1.40;;;9.60;99.90;;;;;;5061333;28;20029;-62
2021/01/19 11:33:55;;;;;;;8.55;1.50;;;9.60;99.90;;;;;;5059178;28;20036;-63
2021/01/19 11:36:26;;;;;;;8.52;1.50;;;9.60;99.90;;;;;;5060626;28;20041;-63
2021/01/19 11:38:53;;;;;;;4.28;1.17;;;9.60;99.90;;;;;;5064079;28;20111;-63
2021/01/19 11:41:21;;;;;;;9.48;1.30;;;9.60;99.90;;;;;;5060919;28;20119;-64
2021/01/19 11:43:47;;;;;;;5.93;1.27;;;9.60;99.90;;;;;;5059664;28;20029;-63
2021/01/19 11:46:20;;;;;;;7.47;1.38;;;9.70;99.90;;;;;;5062926;28;20409;-63
2021/01/19 11:48:47;;;;;;;13.90;1.15;;;9.70;99.90;;;;;;5064527;28;20040;-63
2021/01/19 11:51:21;;;;;;;11.15;1.23;;;9.70;99.90;;;;;;5059729;28;20067;-63
2021/01/19 11:53:48;;;;;;;6.80;1.40;;;9.70;99.90;;;;;;5061561;28;20090;-63
2021/01/19 11:56:13;;;;;;;6.88;1.35;;;9.70;99.90;;;;;;5060497;28;20047;-62
2021/01/19 11:58:40;;;;;;;9.23;2.50;;;9.70;99.90;;;;;;5055554;28;20025;-63
2021/01/19 12:01:05;;;;;;;14.48;2.53;;;9.70;99.90;;;;;;5054228;28;20025;-62
2021/01/19 12:03:31;;;;;;;13.88;2.92;;;9.80;99.90;;;;;;5061083;28;20515;-62
2021/01/19 12:05:56;;;;;;;14.82;2.35;;;9.80;99.90;;;;;;5057219;28;20025;-63
2021/01/19 12:08:22;;;;;;;8.98;1.20;;;9.80;99.90;;;;;;5058326;28;20072;-62
2021/01/19 12:10:47;;;;;;;18.83;3.03;;;9.80;99.90;;;;;;5060625;28;20443;-63
2021/01/19 12:13:13;;;;;;;13.23;1.30;;;9.90;99.90;;;;;;5058290;28;20055;-63
2021/01/19 12:15:42;;;;;;;10.52;2.15;;;9.90;99.90;;;;;;5056842;28;20503;-63
2021/01/19 12:18:11;;;;;;;12.75;1.58;;;9.80;99.90;;;;;;5053744;28;20504;-63
2021/01/19 12:20:37;;;;;;;9.75;1.77;;;9.80;99.90;;;;;;5080576;22;20105;-60
2021/01/19 12:23:04;;;;;;;11.40;1.55;;;9.90;99.90;;;;;;5054268;28;20036;-59
2021/01/19 12:25:30;;;;;;;11.20;2.47;;;9.90;99.90;;;;;;5054971;28;20039;-60
2021/01/19 12:27:56;;;;;;;17.95;2.10;;;9.90;99.90;;;;;;5059475;28;20025;-60
2021/01/19 12:30:22;;;;;;;8.90;1.92;;;9.90;99.90;;;;;;5059680;28;20405;-61
2021/01/19 12:32:48;;;;;;;10.68;1.92;;;10.00;99.90;;;;;;5058761;28;20060;-60
2021/01/19 12:35:13;;;;;;;13.30;1.60;;;10.00;99.90;;;;;;5056810;28;20591;-60
2021/01/19 12:37:39;;;;;;;14.48;1.67;;;10.00;99.90;;;;;;5055113;28;20301;-61
2021/01/19 12:40:08;;;;;;;13.93;1.80;;;10.00;99.90;;;;;;5057736;28;20033;-59
2021/01/19 12:42:33;;;;;;;18.77;2.78;;;10.10;99.90;;;;;;5058012;28;20374;-60
2021/01/19 12:44:59;;;;;;;16.95;2.05;;;10.10;99.90;;;;;;5055283;28;20063;-59
2021/01/19 12:47:25;;;;;;;16.23;1.95;;;10.10;99.90;;;;;;5056673;28;20059;-60
2021/01/19 12:49:51;;;;;;;13.15;1.60;;;10.10;99.90;;;;;;5058812;28;20025;-59
2021/01/19 12:52:17;;;;;;;14.93;2.17;;;10.10;99.90;;;;;;5059410;28;20043;-60
2021/01/19 12:54:43;;;;;;;16.42;1.60;;;10.10;99.90;;;;;;5056295;28;20040;-59
2021/01/19 12:57:15;;;;;;;17.60;2.53;;;10.10;99.90;;;;;;5058001;28;20029;-61
2021/01/19 12:59:41;;;;;;;13.82;1.95;;;10.00;99.90;;;;;;5057224;28;20029;-61
2021/01/19 13:02:07;;;;;;;11.82;2.08;;;10.10;99.90;;;;;;5059376;28;20021;-61
2021/01/19 13:04:33;;;;;;;13.02;2.33;;;10.10;99.90;;;;;;5059950;28;20047;-60
2021/01/19 13:06:58;;;;;;;15.75;2.55;;;10.10;99.90;;;;;;5056857;28;20436;-59